sensor_id;sensor_type;location;lat;lon;timestamp;P1;durP1;ratioP1;P2;durP2;ratioP2
23682;SDS011;24897;53.514;10.482;2023-07-13T00:02:05;35.50;;;29.60;;
23682;SDS011;24897;53.514;10.482;2023-07-13T00:04:49;34.33;;;30.50;;
23682;SDS011;24897;53.514;10.482;2023-07-13T00:07:34;37.00;;;30.40;;
23682;SDS011;24897;53.514;10.482;2023-07-13T00:10:19;39.13;;;32.00;;
23682;SDS011;24897;53.514;10.482;2023-07-13T00:13:03;39.30;;;31.10;;
23682;SDS011;24897;53.514;10.482;2023-07-13T00:15:47;41.37;;;31.40;;
23682;SDS011;24897;53.514;10.482;2023-07-13T00:18:31;43.17;;;31.77;;
23682;SDS011;24897;53.514;10.482;2023-07-13T00:21:16;38.30;;;32.30;;
23682;SDS011;24897;53.514;10.482;2023-07-13T00:24:00;35.73;;;31.83;;
23682;SDS011;24897;53.514;10.482;2023-07-13T00:26:44;36.47;;;32.53;;
23682;SDS011;24897;53.514;10.482;2023-07-13T00:29:29;39.57;;;31.03;;
23682;SDS011;24897;53.514;10.482;2023-07-13T00:32:13;40.53;;;31.73;;
23682;SDS011;24897;53.514;10.482;2023-07-13T00:34:58;36.73;;;32.73;;
23682;SDS011;24897;53.514;10.482;2023-07-13T00:37:44;38.37;;;33.30;;
23682;SDS011;24897;53.514;10.482;2023-07-13T00:40:28;38.47;;;32.00;;
23682;SDS011;24897;53.514;10.482;2023-07-13T00:43:16;37.33;;;33.33;;
23682;SDS011;24897;53.514;10.482;2023-07-13T00:46:20;41.90;;;34.03;;
23682;SDS011;24897;53.514;10.482;2023-07-13T00:49:05;40.23;;;33.93;;
23682;SDS011;24897;53.514;10.482;2023-07-13T00:51:53;41.77;;;34.00;;
23682;SDS011;24897;53.514;10.482;2023-07-13T00:54:41;38.63;;;33.30;;
23682;SDS011;24897;53.514;10.482;2023-07-13T00:57:30;41.47;;;34.80;;
23682;SDS011;24897;53.514;10.482;2023-07-13T01:00:15;38.47;;;34.23;;
23682;SDS011;24897;53.514;10.482;2023-07-13T01:03:00;37.37;;;33.07;;
23682;SDS011;24897;53.514;10.482;2023-07-13T01:05:48;38.10;;;33.53;;
23682;SDS011;24897;53.514;10.482;2023-07-13T01:08:33;39.73;;;33.53;;
23682;SDS011;24897;53.514;10.482;2023-07-13T01:11:21;39.93;;;33.43;;
23682;SDS011;24897;53.514;10.482;2023-07-13T01:14:08;39.43;;;33.97;;
23682;SDS011;24897;53.514;10.482;2023-07-13T01:16:52;37.00;;;32.63;;
23682;SDS011;24897;53.514;10.482;2023-07-13T01:19:39;37.53;;;33.40;;
23682;SDS011;24897;53.514;10.482;2023-07-13T01:22:26;37.10;;;32.67;;
23682;SDS011;24897;53.514;10.482;2023-07-13T01:25:10;38.67;;;33.63;;
23682;SDS011;24897;53.514;10.482;2023-07-13T01:27:54;38.80;;;33.57;;
23682;SDS011;24897;53.514;10.482;2023-07-13T01:30:39;37.47;;;33.47;;
23682;SDS011;24897;53.514;10.482;2023-07-13T01:33:24;38.97;;;34.33;;
23682;SDS011;24897;53.514;10.482;2023-07-13T01:36:10;38.20;;;33.00;;
23682;SDS011;24897;53.514;10.482;2023-07-13T01:38:55;38.70;;;34.13;;
23682;SDS011;24897;53.514;10.482;2023-07-13T01:41:39;39.27;;;32.70;;
23682;SDS011;24897;53.514;10.482;2023-07-13T01:44:23;37.90;;;33.83;;
23682;SDS011;24897;53.514;10.482;2023-07-13T01:47:07;38.63;;;31.87;;
23682;SDS011;24897;53.514;10.482;2023-07-13T01:49:52;36.87;;;32.93;;
23682;SDS011;24897;53.514;10.482;2023-07-13T01:52:37;37.00;;;32.93;;
23682;SDS011;24897;53.514;10.482;2023-07-13T01:55:21;42.57;;;35.53;;
23682;SDS011;24897;53.514;10.482;2023-07-13T01:58:06;43.40;;;33.93;;
23682;SDS011;24897;53.514;10.482;2023-07-13T02:00:51;38.00;;;33.43;;
23682;SDS011;24897;53.514;10.482;2023-07-13T02:03:35;41.23;;;34.03;;
23682;SDS011;24897;53.514;10.482;2023-07-13T02:06:19;41.87;;;35.73;;
23682;SDS011;24897;53.514;10.482;2023-07-13T02:09:03;42.83;;;36.60;;
23682;SDS011;24897;53.514;10.482;2023-07-13T02:11:48;42.27;;;35.53;;
23682;SDS011;24897;53.514;10.482;2023-07-13T02:14:32;43.47;;;35.97;;
23682;SDS011;24897;53.514;10.482;2023-07-13T02:17:16;41.77;;;35.27;;
23682;SDS011;24897;53.514;10.482;2023-07-13T02:20:00;40.27;;;35.07;;
23682;SDS011;24897;53.514;10.482;2023-07-13T02:22:45;42.67;;;35.13;;
23682;SDS011;24897;53.514;10.482;2023-07-13T02:25:30;43.37;;;35.60;;
23682;SDS011;24897;53.514;10.482;2023-07-13T02:28:14;39.70;;;35.23;;
23682;SDS011;24897;53.514;10.482;2023-07-13T02:31:04;40.73;;;36.37;;
23682;SDS011;24897;53.514;10.482;2023-07-13T02:33:52;44.80;;;36.93;;
23682;SDS011;24897;53.514;10.482;2023-07-13T02:36:36;40.53;;;35.73;;
23682;SDS011;24897;53.514;10.482;2023-07-13T02:39:20;41.43;;;36.70;;
23682;SDS011;24897;53.514;10.482;2023-07-13T02:42:05;42.90;;;36.20;;
23682;SDS011;24897;53.514;10.482;2023-07-13T02:44:50;42.63;;;38.00;;
23682;SDS011;24897;53.514;10.482;2023-07-13T02:47:34;47.13;;;38.47;;
23682;SDS011;24897;53.514;10.482;2023-07-13T02:50:19;42.30;;;36.60;;
23682;SDS011;24897;53.514;10.482;2023-07-13T02:53:04;44.60;;;37.50;;
23682;SDS011;24897;53.514;10.482;2023-07-13T02:55:48;43.80;;;36.87;;
23682;SDS011;24897;53.514;10.482;2023-07-13T02:58:32;45.60;;;37.03;;
23682;SDS011;24897;53.514;10.482;2023-07-13T03:01:19;43.33;;;35.13;;
23682;SDS011;24897;53.514;10.482;2023-07-13T03:04:04;42.87;;;37.00;;
23682;SDS011;24897;53.514;10.482;2023-07-13T03:06:48;47.03;;;36.40;;
23682;SDS011;24897;53.514;10.482;2023-07-13T03:09:33;43.07;;;37.20;;
23682;SDS011;24897;53.514;10.482;2023-07-13T03:12:18;40.60;;;35.73;;
23682;SDS011;24897;53.514;10.482;2023-07-13T03:15:03;41.63;;;36.70;;
23682;SDS011;24897;53.514;10.482;2023-07-13T03:17:47;42.87;;;38.17;;
23682;SDS011;24897;53.514;10.482;2023-07-13T03:20:33;44.17;;;37.67;;
23682;SDS011;24897;53.514;10.482;2023-07-13T03:23:18;46.63;;;36.83;;
23682;SDS011;24897;53.514;10.482;2023-07-13T03:26:10;43.57;;;37.37;;
23682;SDS011;24897;53.514;10.482;2023-07-13T03:28:57;42.67;;;37.37;;
23682;SDS011;24897;53.514;10.482;2023-07-13T03:31:41;48.53;;;37.27;;
23682;SDS011;24897;53.514;10.482;2023-07-13T03:34:25;42.10;;;35.77;;
23682;SDS011;24897;53.514;10.482;2023-07-13T03:37:10;42.13;;;34.63;;
23682;SDS011;24897;53.514;10.482;2023-07-13T03:39:54;35.10;;;31.03;;
23682;SDS011;24897;53.514;10.482;2023-07-13T03:42:38;36.37;;;29.70;;
23682;SDS011;24897;53.514;10.482;2023-07-13T03:45:23;32.50;;;28.80;;
23682;SDS011;24897;53.514;10.482;2023-07-13T03:48:07;34.73;;;29.90;;
23682;SDS011;24897;53.514;10.482;2023-07-13T03:50:52;33.50;;;29.43;;
23682;SDS011;24897;53.514;10.482;2023-07-13T03:53:39;33.93;;;30.33;;
23682;SDS011;24897;53.514;10.482;2023-07-13T03:56:25;32.57;;;28.77;;
23682;SDS011;24897;53.514;10.482;2023-07-13T03:59:09;30.97;;;27.60;;
23682;SDS011;24897;53.514;10.482;2023-07-13T04:01:53;29.87;;;27.00;;
23682;SDS011;24897;53.514;10.482;2023-07-13T04:04:38;30.23;;;27.00;;
23682;SDS011;24897;53.514;10.482;2023-07-13T04:07:24;29.37;;;26.37;;
23682;SDS011;24897;53.514;10.482;2023-07-13T04:10:08;30.83;;;27.57;;
23682;SDS011;24897;53.514;10.482;2023-07-13T04:12:52;27.67;;;25.17;;
23682;SDS011;24897;53.514;10.482;2023-07-13T04:15:37;29.23;;;26.30;;
23682;SDS011;24897;53.514;10.482;2023-07-13T04:18:22;27.80;;;25.00;;
23682;SDS011;24897;53.514;10.482;2023-07-13T04:21:07;26.40;;;23.83;;
23682;SDS011;24897;53.514;10.482;2023-07-13T04:23:55;26.33;;;23.93;;
23682;SDS011;24897;53.514;10.482;2023-07-13T04:26:40;27.43;;;24.90;;
23682;SDS011;24897;53.514;10.482;2023-07-13T04:29:24;24.07;;;21.77;;
23682;SDS011;24897;53.514;10.482;2023-07-13T04:32:08;24.83;;;22.33;;
23682;SDS011;24897;53.514;10.482;2023-07-13T04:34:52;25.67;;;23.17;;
23682;SDS011;24897;53.514;10.482;2023-07-13T04:37:39;24.70;;;22.47;;
23682;SDS011;24897;53.514;10.482;2023-07-13T04:40:24;25.30;;;22.80;;
23682;SDS011;24897;53.514;10.482;2023-07-13T04:43:09;26.00;;;23.27;;
23682;SDS011;24897;53.514;10.482;2023-07-13T04:45:54;27.20;;;24.52;;
23682;SDS011;24897;53.514;10.482;2023-07-13T04:48:38;27.40;;;24.55;;
23682;SDS011;24897;53.514;10.482;2023-07-13T04:51:22;28.33;;;25.70;;
23682;SDS011;24897;53.514;10.482;2023-07-13T04:54:06;27.43;;;24.83;;
23682;SDS011;24897;53.514;10.482;2023-07-13T04:56:51;27.27;;;24.60;;
23682;SDS011;24897;53.514;10.482;2023-07-13T04:59:35;25.17;;;22.67;;
23682;SDS011;24897;53.514;10.482;2023-07-13T05:02:22;25.85;;;23.25;;
23682;SDS011;24897;53.514;10.482;2023-07-13T05:05:07;25.73;;;23.30;;
23682;SDS011;24897;53.514;10.482;2023-07-13T05:07:51;26.17;;;23.52;;
23682;SDS011;24897;53.514;10.482;2023-07-13T05:10:36;25.33;;;23.02;;
23682;SDS011;24897;53.514;10.482;2023-07-13T05:13:20;25.52;;;22.98;;
23682;SDS011;24897;53.514;10.482;2023-07-13T05:16:05;24.70;;;22.38;;
23682;SDS011;24897;53.514;10.482;2023-07-13T05:18:51;24.27;;;21.95;;
23682;SDS011;24897;53.514;10.482;2023-07-13T05:21:35;23.88;;;21.05;;
23682;SDS011;24897;53.514;10.482;2023-07-13T05:24:19;23.55;;;21.15;;
23682;SDS011;24897;53.514;10.482;2023-07-13T05:27:04;23.30;;;21.17;;
23682;SDS011;24897;53.514;10.482;2023-07-13T05:29:48;21.55;;;19.65;;
23682;SDS011;24897;53.514;10.482;2023-07-13T05:32:33;22.40;;;20.10;;
23682;SDS011;24897;53.514;10.482;2023-07-13T05:35:17;22.90;;;20.50;;
23682;SDS011;24897;53.514;10.482;2023-07-13T05:38:01;22.95;;;20.75;;
23682;SDS011;24897;53.514;10.482;2023-07-13T05:40:45;23.75;;;21.45;;
23682;SDS011;24897;53.514;10.482;2023-07-13T05:43:30;22.67;;;20.47;;
23682;SDS011;24897;53.514;10.482;2023-07-13T05:46:14;21.75;;;19.70;;
23682;SDS011;24897;53.514;10.482;2023-07-13T05:48:58;21.30;;;19.05;;
23682;SDS011;24897;53.514;10.482;2023-07-13T05:51:43;21.48;;;19.38;;
23682;SDS011;24897;53.514;10.482;2023-07-13T05:54:27;20.73;;;18.83;;
23682;SDS011;24897;53.514;10.482;2023-07-13T05:57:11;20.83;;;18.90;;
23682;SDS011;24897;53.514;10.482;2023-07-13T05:59:55;22.08;;;18.83;;
23682;SDS011;24897;53.514;10.482;2023-07-13T06:02:39;22.40;;;20.08;;
23682;SDS011;24897;53.514;10.482;2023-07-13T06:05:23;20.98;;;19.08;;
23682;SDS011;24897;53.514;10.482;2023-07-13T06:08:07;22.40;;;20.17;;
23682;SDS011;24897;53.514;10.482;2023-07-13T06:10:52;21.33;;;19.33;;
23682;SDS011;24897;53.514;10.482;2023-07-13T06:13:37;23.10;;;19.70;;
23682;SDS011;24897;53.514;10.482;2023-07-13T06:16:21;21.15;;;19.15;;
23682;SDS011;24897;53.514;10.482;2023-07-13T06:19:05;20.20;;;18.20;;
23682;SDS011;24897;53.514;10.482;2023-07-13T06:21:50;21.02;;;19.02;;
23682;SDS011;24897;53.514;10.482;2023-07-13T06:24:34;21.05;;;18.85;;
23682;SDS011;24897;53.514;10.482;2023-07-13T06:27:18;22.98;;;20.15;;
23682;SDS011;24897;53.514;10.482;2023-07-13T06:30:02;24.43;;;21.93;;
23682;SDS011;24897;53.514;10.482;2023-07-13T06:32:46;26.57;;;23.17;;
23682;SDS011;24897;53.514;10.482;2023-07-13T06:35:31;24.37;;;21.87;;
23682;SDS011;24897;53.514;10.482;2023-07-13T06:38:15;22.73;;;20.43;;
23682;SDS011;24897;53.514;10.482;2023-07-13T06:40:59;22.37;;;20.07;;
23682;SDS011;24897;53.514;10.482;2023-07-13T06:43:44;22.95;;;18.95;;
23682;SDS011;24897;53.514;10.482;2023-07-13T06:46:28;22.77;;;19.00;;
23682;SDS011;24897;53.514;10.482;2023-07-13T06:49:13;21.75;;;18.88;;
23682;SDS011;24897;53.514;10.482;2023-07-13T06:51:57;23.00;;;19.23;;
23682;SDS011;24897;53.514;10.482;2023-07-13T06:54:41;20.45;;;18.33;;
23682;SDS011;24897;53.514;10.482;2023-07-13T06:57:25;21.38;;;18.27;;
23682;SDS011;24897;53.514;10.482;2023-07-13T07:00:10;23.20;;;19.33;;
23682;SDS011;24897;53.514;10.482;2023-07-13T07:02:54;23.05;;;20.35;;
23682;SDS011;24897;53.514;10.482;2023-07-13T07:05:38;25.05;;;20.42;;
23682;SDS011;24897;53.514;10.482;2023-07-13T07:08:23;22.00;;;19.30;;
23682;SDS011;24897;53.514;10.482;2023-07-13T07:11:08;19.73;;;17.35;;
23682;SDS011;24897;53.514;10.482;2023-07-13T07:13:56;20.80;;;18.25;;
23682;SDS011;24897;53.514;10.482;2023-07-13T07:16:40;23.63;;;18.80;;
23682;SDS011;24897;53.514;10.482;2023-07-13T07:19:24;20.67;;;18.27;;
23682;SDS011;24897;53.514;10.482;2023-07-13T07:22:08;20.70;;;18.50;;
23682;SDS011;24897;53.514;10.482;2023-07-13T07:24:53;24.00;;;18.53;;
23682;SDS011;24897;53.514;10.482;2023-07-13T07:27:37;19.90;;;17.80;;
23682;SDS011;24897;53.514;10.482;2023-07-13T07:30:22;21.47;;;19.17;;
23682;SDS011;24897;53.514;10.482;2023-07-13T07:33:06;21.93;;;19.60;;
23682;SDS011;24897;53.514;10.482;2023-07-13T07:35:50;21.53;;;18.63;;
23682;SDS011;24897;53.514;10.482;2023-07-13T07:38:35;22.03;;;19.13;;
23682;SDS011;24897;53.514;10.482;2023-07-13T07:41:19;23.00;;;20.60;;
23682;SDS011;24897;53.514;10.482;2023-07-13T07:44:03;21.13;;;18.93;;
23682;SDS011;24897;53.514;10.482;2023-07-13T07:46:48;20.87;;;18.73;;
23682;SDS011;24897;53.514;10.482;2023-07-13T07:49:33;20.80;;;18.60;;
23682;SDS011;24897;53.514;10.482;2023-07-13T07:52:18;21.53;;;18.37;;
23682;SDS011;24897;53.514;10.482;2023-07-13T07:55:03;21.40;;;19.27;;
23682;SDS011;24897;53.514;10.482;2023-07-13T07:57:49;21.07;;;18.83;;
23682;SDS011;24897;53.514;10.482;2023-07-13T08:00:33;20.67;;;18.47;;
23682;SDS011;24897;53.514;10.482;2023-07-13T08:03:19;19.60;;;17.60;;
23682;SDS011;24897;53.514;10.482;2023-07-13T08:06:03;18.80;;;16.80;;
23682;SDS011;24897;53.514;10.482;2023-07-13T08:08:47;18.27;;;16.43;;
23682;SDS011;24897;53.514;10.482;2023-07-13T08:11:32;19.20;;;17.30;;
23682;SDS011;24897;53.514;10.482;2023-07-13T08:14:15;18.33;;;16.50;;
23682;SDS011;24897;53.514;10.482;2023-07-13T08:17:00;17.60;;;15.77;;
23682;SDS011;24897;53.514;10.482;2023-07-13T08:19:44;18.88;;;17.08;;
23682;SDS011;24897;53.514;10.482;2023-07-13T08:22:28;19.95;;;17.77;;
23682;SDS011;24897;53.514;10.482;2023-07-13T08:25:11;24.30;;;18.13;;
23682;SDS011;24897;53.514;10.482;2023-07-13T08:27:56;20.37;;;18.27;;
23682;SDS011;24897;53.514;10.482;2023-07-13T08:30:40;22.53;;;19.40;;
23682;SDS011;24897;53.514;10.482;2023-07-13T08:33:24;20.63;;;18.50;;
23682;SDS011;24897;53.514;10.482;2023-07-13T08:36:09;20.83;;;18.67;;
23682;SDS011;24897;53.514;10.482;2023-07-13T08:38:53;21.70;;;17.90;;
23682;SDS011;24897;53.514;10.482;2023-07-13T08:41:37;19.48;;;17.50;;
23682;SDS011;24897;53.514;10.482;2023-07-13T08:44:24;20.50;;;17.70;;
23682;SDS011;24897;53.514;10.482;2023-07-13T08:47:35;19.20;;;17.03;;
23682;SDS011;24897;53.514;10.482;2023-07-13T08:50:27;19.03;;;17.00;;
23682;SDS011;24897;53.514;10.482;2023-07-13T08:53:16;19.40;;;17.55;;
23682;SDS011;24897;53.514;10.482;2023-07-13T08:56:02;19.33;;;17.23;;
23682;SDS011;24897;53.514;10.482;2023-07-13T08:58:48;18.73;;;16.85;;
23682;SDS011;24897;53.514;10.482;2023-07-13T09:04:59;22.02;;;16.48;;
23682;SDS011;24897;53.514;10.482;2023-07-13T09:08:05;18.73;;;16.83;;
23682;SDS011;24897;53.514;10.482;2023-07-13T09:11:16;19.00;;;17.13;;
23682;SDS011;24897;53.514;10.482;2023-07-13T09:17:27;21.90;;;18.15;;
23682;SDS011;24897;53.514;10.482;2023-07-13T09:20:29;20.20;;;17.77;;
23682;SDS011;24897;53.514;10.482;2023-07-13T09:23:20;20.17;;;18.07;;
23682;SDS011;24897;53.514;10.482;2023-07-13T09:26:15;19.43;;;17.53;;
23682;SDS011;24897;53.514;10.482;2023-07-13T09:29:10;19.10;;;17.20;;
23682;SDS011;24897;53.514;10.482;2023-07-13T09:32:04;18.23;;;16.57;;
23682;SDS011;24897;53.514;10.482;2023-07-13T09:34:52;19.20;;;17.13;;
23682;SDS011;24897;53.514;10.482;2023-07-13T09:37:37;18.30;;;16.15;;
23682;SDS011;24897;53.514;10.482;2023-07-13T09:40:30;19.23;;;17.33;;
23682;SDS011;24897;53.514;10.482;2023-07-13T09:43:24;18.33;;;16.73;;
23682;SDS011;24897;53.514;10.482;2023-07-13T09:46:19;18.17;;;16.25;;
23682;SDS011;24897;53.514;10.482;2023-07-13T09:49:06;18.65;;;16.92;;
23682;SDS011;24897;53.514;10.482;2023-07-13T09:52:00;19.73;;;17.77;;
23682;SDS011;24897;53.514;10.482;2023-07-13T09:54:50;19.35;;;17.52;;
23682;SDS011;24897;53.514;10.482;2023-07-13T09:57:38;18.98;;;16.98;;
23682;SDS011;24897;53.514;10.482;2023-07-13T10:00:30;18.35;;;16.55;;
23682;SDS011;24897;53.514;10.482;2023-07-13T10:03:34;17.48;;;15.88;;
23682;SDS011;24897;53.514;10.482;2023-07-13T10:06:23;17.65;;;16.00;;
23682;SDS011;24897;53.514;10.482;2023-07-13T10:09:07;16.98;;;15.40;;
23682;SDS011;24897;53.514;10.482;2023-07-13T10:11:52;18.48;;;16.63;;
23682;SDS011;24897;53.514;10.482;2023-07-13T10:14:36;17.35;;;15.88;;
23682;SDS011;24897;53.514;10.482;2023-07-13T10:17:25;18.05;;;16.48;;
23682;SDS011;24897;53.514;10.482;2023-07-13T10:20:14;18.88;;;17.17;;
23682;SDS011;24897;53.514;10.482;2023-07-13T10:25:45;19.50;;;17.80;;
23682;SDS011;24897;53.514;10.482;2023-07-13T10:28:37;20.60;;;18.70;;
23682;SDS011;24897;53.514;10.482;2023-07-13T10:31:24;21.40;;;19.50;;
23682;SDS011;24897;53.514;10.482;2023-07-13T10:34:09;21.40;;;19.30;;
23682;SDS011;24897;53.514;10.482;2023-07-13T10:36:57;18.98;;;17.08;;
23682;SDS011;24897;53.514;10.482;2023-07-13T10:39:42;19.70;;;17.73;;
23682;SDS011;24897;53.514;10.482;2023-07-13T10:42:28;18.75;;;17.20;;
23682;SDS011;24897;53.514;10.482;2023-07-13T10:45:18;18.95;;;17.25;;
23682;SDS011;24897;53.514;10.482;2023-07-13T10:48:05;19.15;;;17.52;;
23682;SDS011;24897;53.514;10.482;2023-07-13T10:50:54;18.70;;;17.20;;
23682;SDS011;24897;53.514;10.482;2023-07-13T10:53:39;18.30;;;16.50;;
23682;SDS011;24897;53.514;10.482;2023-07-13T10:56:29;18.50;;;16.83;;
23682;SDS011;24897;53.514;10.482;2023-07-13T10:59:18;18.48;;;16.83;;
23682;SDS011;24897;53.514;10.482;2023-07-13T11:02:15;18.60;;;16.70;;
23682;SDS011;24897;53.514;10.482;2023-07-13T11:05:25;18.08;;;16.38;;
23682;SDS011;24897;53.514;10.482;2023-07-13T11:20:37;17.88;;;16.40;;
23682;SDS011;24897;53.514;10.482;2023-07-13T11:23:29;18.45;;;16.65;;
23682;SDS011;24897;53.514;10.482;2023-07-13T11:29:35;17.55;;;15.98;;
23682;SDS011;24897;53.514;10.482;2023-07-13T11:32:26;18.02;;;16.33;;
23682;SDS011;24897;53.514;10.482;2023-07-13T11:35:16;17.77;;;16.30;;
23682;SDS011;24897;53.514;10.482;2023-07-13T11:38:12;17.25;;;15.68;;
23682;SDS011;24897;53.514;10.482;2023-07-13T11:41:04;15.93;;;14.52;;
23682;SDS011;24897;53.514;10.482;2023-07-13T11:44:06;17.13;;;15.38;;
23682;SDS011;24897;53.514;10.482;2023-07-13T11:47:11;16.70;;;15.30;;
23682;SDS011;24897;53.514;10.482;2023-07-13T11:50:01;17.05;;;15.45;;
23682;SDS011;24897;53.514;10.482;2023-07-13T11:52:45;18.13;;;16.52;;
23682;SDS011;24897;53.514;10.482;2023-07-13T11:55:29;16.90;;;15.60;;
23682;SDS011;24897;53.514;10.482;2023-07-13T11:58:16;17.40;;;15.90;;
23682;SDS011;24897;53.514;10.482;2023-07-13T12:01:04;17.08;;;15.70;;
23682;SDS011;24897;53.514;10.482;2023-07-13T12:03:49;17.67;;;16.17;;
23682;SDS011;24897;53.514;10.482;2023-07-13T12:06:34;17.10;;;15.60;;
23682;SDS011;24897;53.514;10.482;2023-07-13T12:09:22;18.08;;;16.33;;
23682;SDS011;24897;53.514;10.482;2023-07-13T12:12:11;16.95;;;15.55;;
23682;SDS011;24897;53.514;10.482;2023-07-13T12:14:56;17.05;;;15.55;;
23682;SDS011;24897;53.514;10.482;2023-07-13T12:17:40;17.10;;;15.60;;
23682;SDS011;24897;53.514;10.482;2023-07-13T12:20:26;17.42;;;15.93;;
23682;SDS011;24897;53.514;10.482;2023-07-13T12:23:24;16.90;;;15.38;;
23682;SDS011;24897;53.514;10.482;2023-07-13T12:26:13;17.63;;;16.13;;
23682;SDS011;24897;53.514;10.482;2023-07-13T12:28:59;16.00;;;14.80;;
23682;SDS011;24897;53.514;10.482;2023-07-13T12:31:46;16.40;;;15.10;;
23682;SDS011;24897;53.514;10.482;2023-07-13T12:34:32;16.48;;;15.13;;
23682;SDS011;24897;53.514;10.482;2023-07-13T12:37:34;16.80;;;15.40;;
23682;SDS011;24897;53.514;10.482;2023-07-13T12:40:19;16.95;;;15.55;;
23682;SDS011;24897;53.514;10.482;2023-07-13T12:43:11;16.60;;;15.20;;
23682;SDS011;24897;53.514;10.482;2023-07-13T12:46:04;16.50;;;15.10;;
23682;SDS011;24897;53.514;10.482;2023-07-13T12:49:00;16.35;;;14.95;;
23682;SDS011;24897;53.514;10.482;2023-07-13T12:51:51;16.27;;;14.88;;
23682;SDS011;24897;53.514;10.482;2023-07-13T12:54:41;16.13;;;14.77;;
23682;SDS011;24897;53.514;10.482;2023-07-13T12:57:25;16.08;;;14.70;;
23682;SDS011;24897;53.514;10.482;2023-07-13T13:00:19;19.73;;;18.13;;
23682;SDS011;24897;53.514;10.482;2023-07-13T13:03:21;22.17;;;20.17;;
23682;SDS011;24897;53.514;10.482;2023-07-13T13:08:59;35.13;;;31.33;;
23682;SDS011;24897;53.514;10.482;2023-07-13T13:11:44;37.43;;;31.67;;
23682;SDS011;24897;53.514;10.482;2023-07-13T13:14:28;35.00;;;30.17;;
23682;SDS011;24897;53.514;10.482;2023-07-13T13:17:16;37.80;;;29.47;;
23682;SDS011;24897;53.514;10.482;2023-07-13T13:20:14;32.57;;;29.00;;
23682;SDS011;24897;53.514;10.482;2023-07-13T13:23:04;34.27;;;29.30;;
23682;SDS011;24897;53.514;10.482;2023-07-13T13:25:48;33.03;;;29.20;;
23682;SDS011;24897;53.514;10.482;2023-07-13T13:28:34;33.17;;;28.33;;
23682;SDS011;24897;53.514;10.482;2023-07-13T13:31:18;33.37;;;29.43;;
23682;SDS011;24897;53.514;10.482;2023-07-13T13:34:04;31.00;;;27.63;;
23682;SDS011;24897;53.514;10.482;2023-07-13T13:36:55;32.00;;;27.80;;
23682;SDS011;24897;53.514;10.482;2023-07-13T13:39:39;30.50;;;27.30;;
23682;SDS011;24897;53.514;10.482;2023-07-13T13:42:23;29.87;;;26.60;;
23682;SDS011;24897;53.514;10.482;2023-07-13T13:45:09;29.50;;;26.47;;
23682;SDS011;24897;53.514;10.482;2023-07-13T13:47:53;28.80;;;25.87;;
23682;SDS011;24897;53.514;10.482;2023-07-13T13:50:38;29.00;;;26.03;;
23682;SDS011;24897;53.514;10.482;2023-07-13T13:53:24;28.07;;;25.03;;
23682;SDS011;24897;53.514;10.482;2023-07-13T13:56:08;31.40;;;28.40;;
23682;SDS011;24897;53.514;10.482;2023-07-13T13:58:52;30.17;;;27.13;;
23682;SDS011;24897;53.514;10.482;2023-07-13T14:01:36;31.67;;;28.57;;
23682;SDS011;24897;53.514;10.482;2023-07-13T14:04:21;29.57;;;26.77;;
23682;SDS011;24897;53.514;10.482;2023-07-13T14:07:07;29.53;;;26.53;;
23682;SDS011;24897;53.514;10.482;2023-07-13T14:09:55;29.63;;;27.10;;
23682;SDS011;24897;53.514;10.482;2023-07-13T14:12:45;30.13;;;27.43;;
23682;SDS011;24897;53.514;10.482;2023-07-13T14:15:31;28.97;;;26.37;;
23682;SDS011;24897;53.514;10.482;2023-07-13T14:18:15;29.63;;;27.00;;
23682;SDS011;24897;53.514;10.482;2023-07-13T14:21:01;30.77;;;27.97;;
23682;SDS011;24897;53.514;10.482;2023-07-13T14:23:46;31.10;;;28.03;;
23682;SDS011;24897;53.514;10.482;2023-07-13T14:26:32;32.73;;;29.53;;
23682;SDS011;24897;53.514;10.482;2023-07-13T14:29:21;32.20;;;29.20;;
23682;SDS011;24897;53.514;10.482;2023-07-13T14:32:05;32.03;;;28.97;;
23682;SDS011;24897;53.514;10.482;2023-07-13T14:34:54;32.27;;;29.13;;
23682;SDS011;24897;53.514;10.482;2023-07-13T14:37:38;32.43;;;29.27;;
23682;SDS011;24897;53.514;10.482;2023-07-13T14:40:29;30.10;;;27.50;;
23682;SDS011;24897;53.514;10.482;2023-07-13T14:43:15;30.67;;;28.00;;
23682;SDS011;24897;53.514;10.482;2023-07-13T14:46:00;32.43;;;29.43;;
23682;SDS011;24897;53.514;10.482;2023-07-13T14:48:44;30.20;;;27.43;;
23682;SDS011;24897;53.514;10.482;2023-07-13T14:51:30;31.77;;;28.87;;
23682;SDS011;24897;53.514;10.482;2023-07-13T14:54:14;30.60;;;27.60;;
23682;SDS011;24897;53.514;10.482;2023-07-13T14:56:59;30.60;;;27.80;;
23682;SDS011;24897;53.514;10.482;2023-07-13T14:59:45;30.97;;;28.17;;
23682;SDS011;24897;53.514;10.482;2023-07-13T15:02:31;31.23;;;28.17;;
23682;SDS011;24897;53.514;10.482;2023-07-13T15:05:19;29.77;;;27.03;;
23682;SDS011;24897;53.514;10.482;2023-07-13T15:08:07;30.30;;;27.20;;
23682;SDS011;24897;53.514;10.482;2023-07-13T15:10:54;30.07;;;27.27;;
23682;SDS011;24897;53.514;10.482;2023-07-13T15:13:41;29.87;;;27.17;;
23682;SDS011;24897;53.514;10.482;2023-07-13T15:16:28;31.40;;;28.30;;
23682;SDS011;24897;53.514;10.482;2023-07-13T15:19:12;29.60;;;27.00;;
23682;SDS011;24897;53.514;10.482;2023-07-13T15:21:57;29.83;;;27.30;;
23682;SDS011;24897;53.514;10.482;2023-07-13T15:24:41;29.63;;;26.93;;
23682;SDS011;24897;53.514;10.482;2023-07-13T15:27:25;28.80;;;26.30;;
23682;SDS011;24897;53.514;10.482;2023-07-13T15:30:10;29.63;;;27.07;;
23682;SDS011;24897;53.514;10.482;2023-07-13T15:33:00;29.57;;;27.00;;
23682;SDS011;24897;53.514;10.482;2023-07-13T15:35:55;29.43;;;26.80;;
23682;SDS011;24897;53.514;10.482;2023-07-13T15:38:42;27.60;;;25.27;;
23682;SDS011;24897;53.514;10.482;2023-07-13T15:41:28;26.23;;;23.80;;
23682;SDS011;24897;53.514;10.482;2023-07-13T15:44:23;21.17;;;19.57;;
23682;SDS011;24897;53.514;10.482;2023-07-13T15:47:12;24.00;;;22.07;;
23682;SDS011;24897;53.514;10.482;2023-07-13T15:49:57;22.33;;;20.53;;
23682;SDS011;24897;53.514;10.482;2023-07-13T15:52:41;19.53;;;18.03;;
23682;SDS011;24897;53.514;10.482;2023-07-13T15:55:27;22.03;;;20.23;;
23682;SDS011;24897;53.514;10.482;2023-07-13T15:58:22;22.50;;;20.67;;
23682;SDS011;24897;53.514;10.482;2023-07-13T16:01:08;21.30;;;19.40;;
23682;SDS011;24897;53.514;10.482;2023-07-13T16:03:54;22.80;;;20.87;;
23682;SDS011;24897;53.514;10.482;2023-07-13T16:06:39;25.47;;;23.43;;
23682;SDS011;24897;53.514;10.482;2023-07-13T16:09:24;26.97;;;24.70;;
23682;SDS011;24897;53.514;10.482;2023-07-13T16:12:10;28.83;;;26.27;;
23682;SDS011;24897;53.514;10.482;2023-07-13T16:14:56;26.97;;;24.73;;
23682;SDS011;24897;53.514;10.482;2023-07-13T16:17:40;27.73;;;25.23;;
23682;SDS011;24897;53.514;10.482;2023-07-13T16:20:24;28.37;;;25.77;;
23682;SDS011;24897;53.514;10.482;2023-07-13T16:23:08;27.07;;;24.77;;
23682;SDS011;24897;53.514;10.482;2023-07-13T16:25:55;27.77;;;25.23;;
23682;SDS011;24897;53.514;10.482;2023-07-13T16:28:39;30.37;;;27.57;;